Tiempo atmosférico en la estación meteorológica de Fresno de Cantiespino, Segovia (993 m.)



Fecha
DESCASC
Temp. máxima en grados centígrados (hora)
DESCASC
Temp. mínima en grados centígrados (hora)
DESCASC
Temp. media en grados centígrados
DESCASC
Racha de viento máxima en m/sg (hora)
DESCASC
Velocidad máxima media en intervalos de 10 minutos(hora)
DESCASC
Precipitaciones diarias en mm
DESCASC
Precipitaciones de 00:00 a 06:00 en mm
DESCASC
Precipitaciones de 06:00 a 12:00 en mm
DESCASC
Precipitaciones de 12:00 a 18:00 en mm
DESCASC
Precipitaciones de 18:00 a 24:00 en mm
DESCASC

Gráficas

Temp. máximas Temp. mínimas Temp. medias Precipitaciones Rachas de viento máximas Velocidades máximas media en intervalos de 10 minutos

Datos horarios

Fecha y hora oficial Temperatura (ºC) Velocidad del viento (km/h) Dirección del viento Racha (km/h) Dirección de racha Precipitación (mm) Presión (hPa) Tendencia (hPa) Humedad (%)
2019-04-17 23:00:00 11.6 3 Sur 19 Sudoeste 0.4 -- -- 84
2019-04-17 22:00:00 12.8 4 Sudoeste 23 Oeste 0 -- -- 68
2019-04-17 21:00:00 14.5 19 Oeste 38 Sudeste 0 -- -- 60
2019-04-17 20:00:00 19.1 20 Sudeste 35 Sudeste 0 -- -- 39
2019-04-17 19:00:00 18.2 6 Este 33 Sur 0 -- -- 44
2019-04-17 18:00:00 19 13 Sur 36 Sur 0 -- -- 39
2019-04-17 17:00:00 17.9 6 Nordeste 19 Este 0 -- -- 48
2019-04-17 16:00:00 18.4 12 Nordeste 18 Norte 0 -- -- 45
2019-04-17 15:00:00 17.7 5 Sur 33 Sudoeste 0 -- -- 45
2019-04-17 14:00:00 15.8 19 Sudoeste 32 Sur 0 -- -- 50
2019-04-17 13:00:00 14.2 6 Nordeste 14 Norte 0 -- -- 62
2019-04-17 12:00:00 12.9 8 Norte 13 Norte 0 -- -- 68
2019-04-17 11:00:00 10.5 5 Nordeste 14 Norte 0 -- -- 78
2019-04-17 10:00:00 9 4 Norte 11 Nordeste 0 -- -- 82
2019-04-17 09:00:00 7.6 2 Sudoeste 13 Sudoeste 0 -- -- 82
2019-04-17 08:00:00 8.2 3 Oeste 14 Sudoeste 0 -- -- 75
2019-04-17 07:00:00 7.8 0 Calma 9 Nordeste 0 -- -- 75
2019-04-17 06:00:00 9.2 5 Norte 15 Oeste 0 -- -- 70
2019-04-17 05:00:00 11.4 11 Sudoeste 30 Sur 0 -- -- 61
2019-04-17 04:00:00 12.2 15 Sudeste 35 Sudeste 0 -- -- 61
2019-04-17 03:00:00 10.8 16 Sur 29 Sur 0 -- -- 63
2019-04-17 02:00:00 6.9 3 Sudoeste 14 Sur 0 -- -- 70
2019-04-17 01:00:00 7.6 4 Norte 11 Norte 0 -- -- 68
2019-04-17 00:00:00 9.4 3 Nordeste 11 Sur 0 -- -- 62
2019-04-16 23:00:00 12 9 Sur 14 Sudeste 0 -- -- 51
2019-04-16 22:00:00 11.9 9 Sur 15 Sur 0 -- -- 51
2019-04-16 21:00:00 13.4 7 Sur 18 Sur 0 -- -- 48
2019-04-16 20:00:00 16.7 13 Sur 29 Sur 0 -- -- 36
2019-04-16 19:00:00 17.3 17 Sur 31 Sudoeste 0 -- -- 33
2019-04-16 18:00:00 18.5 20 Sudoeste 36 Sudoeste 0 -- -- 33
2019-04-16 17:00:00 17.9 8 Norte 14 Norte 0 -- -- 38
2019-04-16 16:00:00 17.6 6 Noroeste 28 Oeste 0 -- -- 47
2019-04-16 15:00:00 16.5 10 Nordeste 22 Norte 0 -- -- 55
2019-04-16 14:00:00 15.3 13 Nordeste 24 Nordeste 0 -- -- 58
2019-04-16 13:00:00 13.4 10 Nordeste 20 Nordeste 0 -- -- 58
2019-04-16 12:00:00 12.6 6 Nordeste 14 Nordeste 0 -- -- 61
2019-04-16 11:00:00 11.4 5 Nordeste 12 Nordeste 0 -- -- 71
2019-04-16 10:00:00 9.5 4 Oeste 12 Sudoeste 0 -- -- 78
2019-04-16 09:00:00 7.2 7 Sudoeste 14 Sudoeste 0 -- -- 90
2019-04-16 08:00:00 4.9 7 Sudoeste 15 Oeste 0 -- -- 93
2019-04-16 07:00:00 6.7 7 Sudoeste 21 Sudoeste 0 -- -- 90
2019-04-16 06:00:00 6.4 12 Sudoeste 21 Sudoeste 0 -- -- 92
2019-04-16 05:00:00 6.4 13 Sudoeste 18 Sudoeste 0 -- -- 90
2019-04-16 04:00:00 5.9 7 Sudoeste 11 Sudoeste 0 -- -- 91
2019-04-16 03:00:00 6.5 8 Sudoeste 17 Sudoeste 0 -- -- 85
2019-04-16 02:00:00 7.5 15 Sudoeste 24 Sudoeste 0 -- -- 82
2019-04-16 01:00:00 7.2 12 Sudoeste 19 Sur 0 -- -- 79
2019-04-16 00:00:00 8.3 12 Sudoeste 19 Sudoeste 0 -- -- 74
2019-04-15 23:00:00 9.7 11 Sur 27 Oeste 0 -- -- 69
2019-04-15 22:00:00 10.5 16 Sudoeste 32 Sudoeste 0 -- -- 68
2019-04-15 21:00:00 11.6 21 Oeste 44 Oeste 0 -- -- 61
2019-04-15 20:00:00 13.1 27 Oeste 52 Oeste 0 -- -- 62
2019-04-15 19:00:00 16.4 32 Oeste 60 Oeste 0 -- -- 57
2019-04-15 18:00:00 20.7 38 Sudoeste 58 Oeste 0 -- -- 35
2019-04-15 17:00:00 20 30 Sur 58 Sudoeste 0 -- -- 45
2019-04-15 16:00:00 19.6 32 Sudoeste 55 Sudoeste 0 -- -- 51
2019-04-15 15:00:00 19.9 28 Sudoeste 49 Sudoeste 0 -- -- 55
2019-04-15 14:00:00 19.4 27 Sur 42 Sur 0 -- -- 59
2019-04-15 13:00:00 18.4 20 Sur 40 Sudoeste 0 -- -- 56
2019-04-15 12:00:00 17.7 23 Sudoeste 40 Sudoeste 0 -- -- 57
2019-04-15 11:00:00 14.6 8 Nordeste 11 Nordeste 0 -- -- 80
2019-04-15 10:00:00 12.3 5 Nordeste 10 Oeste 0 -- -- 87
2019-04-15 09:00:00 8.2 7 Sudoeste 10 Sur 0 -- -- 96
2019-04-15 08:00:00 5.9 2 Sur 8 Sur 0 -- -- 95
2019-04-15 07:00:00 5.5 4 Sur 9 Sur 0 -- -- 94
2019-04-15 06:00:00 5.1 5 Sur 9 Sur 0 -- -- 93
2019-04-15 05:00:00 5.5 3 Oeste 10 Sudoeste 0 -- -- 91
2019-04-15 04:00:00 6.3 4 Sudoeste 7 Sudoeste 0 -- -- 89
2019-04-15 03:00:00 6.5 3 Sur 8 Sur 0 -- -- 90
2019-04-15 02:00:00 7.3 0 Calma 2 Sur 0 -- -- 86
2019-04-15 01:00:00 8.6 3 Sudoeste 10 Sur 0 -- -- 81
2019-04-15 00:00:00 9.1 7 Sudoeste 10 Sur 0 -- -- 83
2019-04-14 23:00:00 9 9 Sur 11 Sur 0 -- -- 83
2019-04-14 22:00:00 10.6 9 Sur 10 Sur 0 -- -- 78
2019-04-14 21:00:00 14.6 4 Noroeste 12 Noroeste 0 -- -- 65
2019-04-14 20:00:00 17.3 6 Noroeste 16 Noroeste 0 -- -- 57
2019-04-14 19:00:00 18.6 7 Oeste 22 Sudoeste 0 -- -- 50
2019-04-14 18:00:00 18.7 11 Sudoeste 22 Oeste 0 -- -- 53
2019-04-14 17:00:00 18.2 13 Oeste 32 Oeste 0 -- -- 56
2019-04-14 16:00:00 17.6 13 Oeste 30 Oeste 0 -- -- 56
2019-04-14 15:00:00 16.3 16 Oeste 30 Sudoeste 0 -- -- 62
2019-04-14 14:00:00 14.6 12 Oeste 24 Oeste 0 -- -- 73
2019-04-14 13:00:00 12.4 16 Oeste 23 Sudoeste 0 -- -- 82
2019-04-14 12:00:00 12.5 15 Oeste 28 Sudoeste 0 -- -- 81
2019-04-14 11:00:00 12.1 16 Sudoeste 26 Oeste 0 -- -- 85
2019-04-14 10:00:00 10.8 15 Oeste 26 Oeste 0 -- -- 88
2019-04-14 09:00:00 10.4 14 Sudoeste 24 Sudoeste 0 -- -- 89
2019-04-14 08:00:00 9.7 13 Sudoeste 22 Sudoeste 0 -- -- 88
2019-04-14 07:00:00 9.9 19 Sudoeste 30 Sudoeste 0 -- -- 84
2019-04-14 06:00:00 10.3 13 Sudoeste 22 Sudoeste 0 -- -- 73
2019-04-14 05:00:00 8.9 10 Sudoeste 19 Sudoeste 0 -- -- 71
2019-04-14 04:00:00 8.9 14 Sudoeste 21 Sudoeste 0 -- -- 59
2019-04-14 03:00:00 7.9 11 Sudoeste 18 Sudoeste 0 -- -- 52
2019-04-14 02:00:00 8.1 16 Sudoeste 18 Sudoeste 0 -- -- 48
2019-04-14 01:00:00 7.3 9 Sudoeste 13 Sudoeste 0 -- -- 53
2019-04-14 00:00:00 7.1 9 Sur 11 Sur 0 -- -- 62
2019-04-13 23:00:00 7.8 9 Sur 13 Sur 0 -- -- 59
2019-04-13 22:00:00 9.2 8 Sur 9 Sudoeste 0 -- -- 59
2019-04-13 21:00:00 12.1 5 Oeste 16 Oeste 0 -- -- 43
2019-04-13 20:00:00 15.8 11 Oeste 22 Oeste 0 -- -- 32
2019-04-13 19:00:00 17.5 15 Oeste 27 Oeste 0 -- -- 23
2019-04-13 18:00:00 18.4 9 Oeste 22 Oeste 0 -- -- 25
2019-04-13 17:00:00 18 13 Oeste 23 Oeste 0 -- -- 26
2019-04-13 16:00:00 17 12 Noroeste 21 Oeste 0 -- -- 26
2019-04-13 15:00:00 16.2 10 Noroeste 17 Este 0 -- -- 32
2019-04-13 14:00:00 14.8 6 Noroeste 16 Norte 0 -- -- 27
2019-04-13 13:00:00 13.8 9 Noroeste 19 Noroeste 0 -- -- 37
2019-04-13 12:00:00 12.7 5 Norte 19 Oeste 0 -- -- 30
2019-04-13 11:00:00 11.9 13 Sudoeste 21 Oeste 0 -- -- 33
2019-04-13 10:00:00 10.3 15 Sudoeste 20 Sudoeste 0 -- -- 45
2019-04-13 09:00:00 5.2 9 Sudoeste 15 Sudoeste 0 -- -- 69
2019-04-13 08:00:00 -0.1 10 Sudoeste 15 Sudoeste 0 -- -- 82
2019-04-13 07:00:00 -0.4 10 Sur 13 Sudoeste 0 -- -- 84
2019-04-13 06:00:00 -1.9 3 Norte 8 Sur 0 -- -- 87
2019-04-13 05:00:00 -0.3 0 Calma 13 Sudoeste 0 -- -- 82
2019-04-13 04:00:00 0.6 11 Sudoeste 14 Sudoeste 0 -- -- 78
2019-04-13 03:00:00 1 12 Sudoeste 15 Sudoeste 0 -- -- 77
2019-04-13 02:00:00 0.7 10 Sur 13 Sudoeste 0 -- -- 81
2019-04-13 01:00:00 0.8 10 Sudoeste 14 Sudoeste 0 -- -- 80
2019-04-13 00:00:00 0.9 10 Sur 13 Sudoeste 0 -- -- 79
2019-04-12 23:00:00 2.3 9 Sudoeste 12 Noroeste 0 -- -- 74
2019-04-12 22:00:00 6.8 9 Noroeste 15 Noroeste 0 -- -- 54
2019-04-12 21:00:00 9.5 8 Oeste 17 Noroeste 0 -- -- 44
2019-04-12 20:00:00 12.4 14 Noroeste 25 Oeste 0 -- -- 35
2019-04-12 19:00:00 13.5 17 Noroeste 27 Oeste 0 -- -- 36
2019-04-12 18:00:00 13.7 15 Noroeste 28 Oeste 0 -- -- 40
2019-04-12 17:00:00 13.4 11 Noroeste 28 Noroeste 0 -- -- 44
2019-04-12 16:00:00 13 9 Oeste 25 Noroeste 0 -- -- 48
2019-04-12 15:00:00 11.8 17 Oeste 35 Sudoeste 0 -- -- 49
2019-04-12 14:00:00 11.5 13 Oeste 27 Oeste 0 -- -- 58
2019-04-12 13:00:00 9.7 10 Sudoeste 23 Sudoeste 0 -- -- 60
2019-04-12 12:00:00 8.3 12 Oeste 26 Sudoeste 0 -- -- 64
2019-04-12 11:00:00 6.7 9 Oeste 15 Sudoeste 0 -- -- 72
2019-04-12 10:00:00 4.6 5 Oeste 9 Oeste 0 -- -- 83
2019-04-12 09:00:00 0.6 4 Sur 8 Sudoeste 0 -- -- 97
2019-04-12 08:00:00 -2.6 5 Sudoeste 7 Sudoeste 0 -- -- 96
2019-04-12 07:00:00 -2.3 7 Sur 12 Sudoeste 0 -- -- 95
2019-04-12 06:00:00 -2.1 7 Sudoeste 10 Sudoeste 0 -- -- 95
2019-04-12 05:00:00 -1.7 6 Sudoeste 9 Sur 0 -- -- 95
2019-04-12 04:00:00 -0.8 6 Sudoeste 8 Sur 0 -- -- 94
2019-04-12 03:00:00 0 6 Sur 7 Sur 0 -- -- 94
2019-04-12 02:00:00 0.5 6 Sudoeste 7 Sudoeste 0 -- -- 93
2019-04-12 01:00:00 1.4 5 Sudoeste 7 Sudoeste 0 -- -- 92
2019-04-12 00:00:00 1.8 6 Sur 7 Sur 0 -- -- 91
2019-04-11 23:00:00 2.8 2 Sudoeste 6 Sudoeste 0 -- -- 87
2019-04-11 22:00:00 4.8 5 Norte 12 Norte 0 -- -- 80
2019-04-11 21:00:00 7.1 9 Noroeste 24 Noroeste 0 -- -- 72
2019-04-11 20:00:00 8.6 10 Norte 23 Norte 0 -- -- 64
2019-04-11 19:00:00 10.4 14 Norte 27 Norte 0 -- -- 55
2019-04-11 18:00:00 10.1 21 Norte 29 Noroeste 0 -- -- 56
2019-04-11 17:00:00 9.9 19 Norte 28 Norte 0 -- -- 57
2019-04-11 16:00:00 9.5 12 Norte 27 Norte 0 -- -- 61
2019-04-11 15:00:00 9.1 16 Norte 28 Norte 0 -- -- 63
2019-04-11 14:00:00 8.5 17 Norte 38 Norte 0 -- -- 60
2019-04-11 13:00:00 8.7 20 Norte 33 Norte 0 -- -- 64
2019-04-11 12:00:00 7.7 17 Norte 31 Norte 0 -- -- 65
2019-04-11 11:00:00 6.7 6 Norte 12 Norte 0 -- -- 80
2019-04-11 10:00:00 4.3 6 Oeste 12 Sudoeste 0 -- -- 86
2019-04-11 09:00:00 2.1 6 Sur 11 Sudoeste 0 -- -- 97
2019-04-11 08:00:00 -1.3 9 Sudoeste 10 Sudoeste 0 -- -- 97
2019-04-11 07:00:00 -1.3 6 Sudoeste 10 Sudoeste 0 -- -- 96
2019-04-11 06:00:00 -1.2 6 Sudoeste 12 Sudoeste 0 -- -- 96
2019-04-11 05:00:00 -1.4 8 Sudoeste 11 Sudoeste 0 -- -- 96
2019-04-11 04:00:00 -1.5 8 Sudoeste 9 Sudoeste 0 -- -- 96
2019-04-11 03:00:00 -1.1 4 Sur 9 Sur 0 -- -- 95
2019-04-11 02:00:00 -0.8 6 Sur 10 Sur 0 -- -- 94
2019-04-11 01:00:00 0.3 5 Sur 6 Sur 0 -- -- 92
2019-04-11 00:00:00 2.4 0 Calma 10 Noroeste 0 -- -- 88
2019-04-10 23:00:00 4 0 Calma 11 Norte 0 -- -- 84
2019-04-10 22:00:00 5.2 8 Norte 16 Norte 0 -- -- 82
2019-04-10 21:00:00 7 10 Norte 19 Noroeste 0 -- -- 74
2019-04-10 20:00:00 8.8 12 Noroeste 21 Norte 0 -- -- 64
2019-04-10 19:00:00 8.8 14 Norte 27 Norte 0 -- -- 64
2019-04-10 18:00:00 9.8 13 Noroeste 29 Noroeste 0 -- -- 65
2019-04-10 17:00:00 10 16 Noroeste 27 Noroeste 0 -- -- 64
2019-04-10 16:00:00 7 10 Norte 32 Norte 0 -- -- 83
2019-04-10 15:00:00 7.1 14 Norte 37 Norte 0 -- -- 82
2019-04-10 14:00:00 7.1 17 Norte 27 Noroeste 0 -- -- 80
2019-04-10 13:00:00 6.6 18 Noroeste 26 Noroeste 0 -- -- 82
2019-04-10 12:00:00 4.3 12 Noroeste 30 Oeste 0.2 -- -- 91
2019-04-10 11:00:00 4.2 12 Noroeste 23 Noroeste 0 -- -- 89
2019-04-10 10:00:00 4.1 10 Oeste 27 Oeste 0 -- -- 94
2019-04-10 09:00:00 3.8 15 Oeste 25 Oeste 0 -- -- 91
2019-04-10 08:00:00 3.6 16 Oeste 26 Oeste 0 -- -- 91
2019-04-10 07:00:00 3.7 18 Oeste 28 Oeste 0 -- -- 91
2019-04-10 06:00:00 4 18 Oeste 28 Oeste 0 -- -- 89
2019-04-10 05:00:00 4.3 18 Oeste 30 Oeste 0 -- -- 90
2019-04-10 04:00:00 4.6 17 Oeste 27 Oeste 0 -- -- 88
2019-04-10 03:00:00 4.9 15 Oeste 27 Oeste 0 -- -- 89
2019-04-10 02:00:00 4.8 20 Oeste 32 Oeste 0 -- -- 89
2019-04-10 01:00:00 5 16 Oeste 33 Sudoeste 0 -- -- 89
2019-04-10 00:00:00 4.9 10 Sudoeste 23 Sudoeste 0 -- -- 85
2019-04-09 23:00:00 4.4 12 Sudoeste 20 Sudoeste 0 -- -- 87
2019-04-09 22:00:00 4.6 10 Sudoeste 18 Sudoeste 0 -- -- 85
2019-04-09 21:00:00 5.9 11 Sudoeste 45 Oeste 0 -- -- 79
2019-04-09 20:00:00 8.3 20 Oeste 33 Oeste 0 -- -- 66
2019-04-09 19:00:00 7.9 18 Oeste 45 Oeste 0 -- -- 70
2019-04-09 18:00:00 8 26 Oeste 45 Sudoeste 0 -- -- 72
2019-04-09 17:00:00 6.8 34 Oeste 55 Oeste 0.6 -- -- 83
2019-04-09 16:00:00 5.8 23 Oeste 46 Oeste 0.4 -- -- 86
2019-04-09 15:00:00 5.2 28 Sudoeste 52 Sudoeste 0.8 -- -- 91
2019-04-09 14:00:00 4.7 25 Oeste 44 Oeste 1 -- -- 85
2019-04-09 13:00:00 6.8 17 Sudoeste 39 Oeste 0 -- -- 85
2019-04-09 12:00:00 6.1 13 Sudoeste 34 Sudoeste 0.2 -- -- 87
2019-04-09 11:00:00 5.7 16 Sudoeste 36 Sudoeste 0 -- -- 89
2019-04-09 10:00:00 6.6 22 Sudoeste 40 Sudoeste 0 -- -- 78
2019-04-09 09:00:00 5.1 14 Sudoeste 23 Sudoeste 0 -- -- 81
2019-04-09 08:00:00 3.5 7 Sudoeste 15 Sudoeste 0 -- -- 89
2019-04-09 07:00:00 4.1 10 Sudoeste 22 Sudoeste 0 -- -- 88
2019-04-09 06:00:00 4.5 13 Sudoeste 25 Sudoeste 0 -- -- 86
2019-04-09 05:00:00 4.2 11 Sudoeste 20 Sudoeste 0 -- -- 88
2019-04-09 04:00:00 4 13 Sudoeste 26 Sudoeste 0 -- -- 89
2019-04-09 03:00:00 4.6 12 Sudoeste 23 Sudoeste 0 -- -- 88
2019-04-09 02:00:00 3.5 15 Sudoeste 24 Sudoeste 0 -- -- 90
2019-04-09 01:00:00 3.9 13 Sudoeste 21 Sudoeste 0 -- -- 88
2019-04-09 00:00:00 4.8 15 Sudoeste 28 Sudoeste 0 -- -- 85
2019-04-08 23:00:00 5.8 19 Sudoeste 39 Sudoeste 0 -- -- 81
2019-04-08 22:00:00 6.6 8 Sudoeste 11 Sudoeste 0 -- -- 76
2019-04-08 21:00:00 7.4 4 Sudoeste 18 Noroeste 0 -- -- 72
2019-04-08 20:00:00 10.5 12 Noroeste 27 Sudoeste 0 -- -- 63
2019-04-08 19:00:00 11.5 14 Oeste 31 Oeste 0 -- -- 58
2019-04-08 18:00:00 11.1 21 Noroeste 39 Oeste 0 -- -- 64
2019-04-08 17:00:00 11.1 16 Oeste 35 Oeste 0 -- -- 59
2019-04-08 16:00:00 10.7 24 Oeste 38 Oeste 0 -- -- 65
2019-04-08 15:00:00 10 15 Sudoeste 38 Oeste 0 -- -- 77
2019-04-08 14:00:00 10.1 21 Sudoeste 33 Oeste 0 -- -- 75
2019-04-08 13:00:00 9 17 Sudoeste 29 Oeste 0.2 -- -- 86
2019-04-08 12:00:00 8 18 Oeste 30 Oeste 0 -- -- 86
2019-04-08 11:00:00 7.4 15 Oeste 28 Oeste 0.2 -- -- 92
2019-04-08 10:00:00 7.1 17 Sudoeste 32 Sudoeste 0 -- -- 92
2019-04-08 09:00:00 6.6 15 Sudoeste 28 Sudoeste 0.8 -- -- 95
2019-04-08 08:00:00 6.4 14 Sudoeste 24 Sudoeste 0.6 -- -- 94
2019-04-08 07:00:00 6.2 10 Sudoeste 21 Sudoeste 0.4 -- -- 94
2019-04-08 06:00:00 6.2 8 Sudoeste 15 Sudoeste 0 -- -- 92
2019-04-08 05:00:00 6.6 7 Sudoeste 20 Sudoeste 0 -- -- 92
2019-04-08 04:00:00 6.3 10 Sudoeste 15 Sudoeste 0 -- -- 95
2019-04-08 03:00:00 6.3 3 Oeste 14 Sudoeste 0 -- -- 95
2019-04-08 02:00:00 5.7 5 Sudoeste 12 Sudoeste 0.2 -- -- 97
2019-04-08 01:00:00 4.8 5 Oeste 8 Oeste 0.4 -- -- 94
2019-04-08 00:00:00 4.4 3 Sudeste 5 Este 0.8 -- -- 92
2019-04-07 23:00:00 4.4 0 Calma 2 Este 0.6 -- -- 90
2019-04-07 22:00:00 4.5 0 Calma 12 Sudoeste 0.4 -- -- 87
2019-04-07 21:00:00 4.9 10 Sudoeste 26 Sudoeste 0 -- -- 89
2019-04-07 20:00:00 5.8 20 Sudoeste 36 Sudoeste 0 -- -- 82
2019-04-07 19:00:00 8.6 22 Sudoeste 31 Sudoeste 0 -- -- 54
2019-04-07 18:00:00 9.2 18 Sudoeste 34 Sudoeste 0 -- -- 54
2019-04-07 17:00:00 9.4 23 Sudoeste 36 Sudoeste 0 -- -- 53
2019-04-07 16:00:00 9.2 26 Sudoeste 38 Sudoeste 0 -- -- 55
2019-04-07 15:00:00 8.6 22 Sudoeste 36 Sudoeste 0 -- -- 63
2019-04-07 14:00:00 7.4 23 Sudoeste 32 Sudoeste 0 -- -- 70
2019-04-07 13:00:00 5.5 18 Oeste 34 Oeste 0 -- -- 73
2019-04-07 12:00:00 3.6 20 Oeste 32 Oeste 0 -- -- 82
2019-04-07 11:00:00 3.1 22 Oeste 32 Oeste 0 -- -- 84
2019-04-07 10:00:00 2.8 18 Sudoeste 33 Oeste 0 -- -- 87
2019-04-07 09:00:00 2.3 23 Oeste 36 Oeste 0 -- -- 89
2019-04-07 08:00:00 1.7 12 Oeste 29 Oeste 0 -- -- 93
2019-04-07 07:00:00 1.3 15 Sudoeste 24 Sudoeste 0.2 -- -- 96
2019-04-07 06:00:00 1 17 Sudoeste 27 Sudoeste 0.4 -- -- 95
2019-04-07 05:00:00 2 13 Sudoeste 40 Sudoeste 0 -- -- 93
2019-04-07 04:00:00 2.2 17 Oeste 38 Sudoeste 0 -- -- 93
2019-04-07 03:00:00 2.6 18 Oeste 40 Oeste 0 -- -- 91
2019-04-07 02:00:00 2.5 22 Sudoeste 40 Sudoeste 0 -- -- 90
2019-04-07 01:00:00 2.7 23 Sudoeste 41 Sudoeste 0 -- -- 91
2019-04-07 00:00:00 2.7 24 Sudoeste 38 Oeste 0 -- -- 87
2019-04-06 23:00:00 3.6 23 Sudoeste 42 Oeste 0 -- -- 87
2019-04-06 22:00:00 3.3 15 Sudoeste 36 Sudoeste 0.4 -- -- 89
2019-04-06 21:00:00 4.5 16 Sudoeste 35 Oeste 0 -- -- 78
2019-04-06 20:00:00 4.6 19 Oeste 38 Sudoeste 0 -- -- 82
2019-04-06 19:00:00 4.7 28 Oeste 46 Oeste 0.8 -- -- 83
2019-04-06 18:00:00 3.3 26 Oeste 55 Oeste 0 -- -- 90
2019-04-06 17:00:00 6.1 34 Sudoeste 57 Sudoeste 0 -- -- 78
2019-04-06 16:00:00 4.4 24 Sudoeste 72 Sudoeste 0.8 -- -- 94
2019-04-06 15:00:00 5.2 25 Sudoeste 57 Sudoeste 0.6 -- -- 91
2019-04-06 14:00:00 5.1 26 Sudoeste 48 Sudoeste 0.2 -- -- 87
2019-04-06 13:00:00 5.6 33 Sudoeste 51 Sudoeste 0 -- -- 75
2019-04-06 12:00:00 4.1 15 Sudoeste 41 Sudoeste 0 -- -- 91
2019-04-06 11:00:00 3.1 20 Sudoeste 36 Sudoeste 0 -- -- 89
2019-04-06 10:00:00 2.5 21 Sudoeste 33 Sudoeste 0 -- -- 92
2019-04-06 09:00:00 1.4 17 Sudoeste 31 Sudoeste 0 -- -- 95
2019-04-06 08:00:00 1 18 Sudoeste 36 Sudoeste 0 -- -- 93
2019-04-06 07:00:00 1.5 19 Sudoeste 34 Sudoeste 0 -- -- 94
2019-04-06 06:00:00 1.3 15 Sudoeste 28 Oeste 0 -- -- 95
2019-04-06 05:00:00 0.8 15 Sudoeste 31 Sudoeste 0.2 -- -- 96
2019-04-06 04:00:00 1 20 Sudoeste 30 Sudoeste 0.2 -- -- 96
2019-04-06 03:00:00 1.7 19 Sudoeste 34 Sudoeste 0 -- -- 94
2019-04-06 02:00:00 1.9 17 Sudoeste 32 Sudoeste 0 -- -- 94
2019-04-06 01:00:00 1.7 18 Sudoeste 33 Sudoeste 0 -- -- 93
2019-04-06 00:00:00 1.2 17 Sudoeste 31 Sudoeste 0 -- -- 94
2019-04-05 23:00:00 0.6 9 Sudoeste 18 Sudoeste 0 -- -- 94
2019-04-05 22:00:00 0.5 10 Sudoeste 19 Sudoeste 0 -- -- 95
2019-04-05 21:00:00 0.9 13 Sudoeste 19 Sudoeste 0 -- -- 95
2019-04-05 20:00:00 0.9 4 Sudoeste 35 Oeste 0.4 -- -- 94
2019-04-05 19:00:00 4.3 10 Sudoeste 18 Oeste 0 -- -- 82
2019-04-05 18:00:00 4.1 9 Sudoeste 15 Sudoeste 0 -- -- 84
2019-04-05 17:00:00 2.9 7 Sudoeste 13 Oeste 0.2 -- -- 86
2019-04-05 16:00:00 1.8 9 Sudoeste 15 Sudoeste 2.4 -- -- 92
2019-04-05 15:00:00 0.5 13 Sudoeste 42 Oeste 0.8 -- -- 95
2019-04-05 14:00:00 5.2 17 Oeste 35 Oeste 0.2 -- -- 84
2019-04-05 13:00:00 6 17 Oeste 24 Oeste 0 -- -- 79
2019-04-05 12:00:00 5.4 16 Oeste 33 Oeste 0 -- -- 83
2019-04-05 11:00:00 5.9 19 Sudoeste 30 Sur 0 -- -- 79
2019-04-05 10:00:00 4.1 15 Sur 24 Sur 0 -- -- 84
2019-04-05 09:00:00 3.4 3 Sudeste 9 Sudeste 0 -- -- 88
2019-04-05 08:00:00 3.2 4 Sur 21 Sudoeste 0 -- -- 88
2019-04-05 07:00:00 3.6 10 Sudoeste 21 Sur 0.6 -- -- 88
2019-04-05 06:00:00 3 2 Nordeste 9 Este 0 -- -- 89
2019-04-05 05:00:00 2.8 0 Calma 7 Sudoeste 0.2 -- -- 87
2019-04-05 04:00:00 3 5 Sudoeste 9 Sudoeste 0 -- -- 86
2019-04-05 03:00:00 3.8 0 Calma 7 Norte 0 -- -- 73
2019-04-05 02:00:00 4.1 5 Nordeste 8 Norte 0 -- -- 70
2019-04-05 01:00:00 4.5 5 Norte 12 Norte 0 -- -- 65
2019-04-05 00:00:00 5.6 0 Calma 7 Sudoeste 0 -- -- 50
2019-04-04 23:00:00 6.3 6 Sudoeste 20 Noroeste 0 -- -- 47
2019-04-04 22:00:00 7 4 Oeste 14 Oeste 0 -- -- 41
2019-04-04 21:00:00 7.9 4 Sudoeste 17 Oeste 0 -- -- 37
2019-04-04 20:00:00 9.1 13 Oeste 26 Sudoeste 0 -- -- 32
2019-04-04 19:00:00 9.9 17 Oeste 37 Oeste 0 -- -- 33
2019-04-04 18:00:00 9.7 24 Oeste 41 Sudoeste 0 -- -- 28
2019-04-04 17:00:00 10.9 19 Sudoeste 40 Oeste 0 -- -- 29
2019-04-04 16:00:00 9.6 20 Oeste 34 Oeste 0 -- -- 35
2019-04-04 15:00:00 8.5 22 Oeste 33 Oeste 0 -- -- 36
2019-04-04 14:00:00 7.7 19 Sudoeste 33 Sudoeste 0 -- -- 42
2019-04-04 13:00:00 6.4 15 Sudoeste 36 Sudoeste 0 -- -- 45
2019-04-04 12:00:00 4.2 21 Oeste 31 Sudoeste 0 -- -- 55
2019-04-04 11:00:00 3.1 20 Sudoeste 35 Oeste 0 -- -- 59
2019-04-04 10:00:00 1.8 18 Sudoeste 32 Sudoeste 0 -- -- 67
2019-04-04 09:00:00 -1 14 Sudoeste 21 Sudoeste 0 -- -- 80
2019-04-04 08:00:00 -4.4 11 Sudoeste 17 Sudoeste 0 -- -- 88
2019-04-04 07:00:00 -4 11 Sudoeste 18 Sudoeste 0 -- -- 85
2019-04-04 06:00:00 -3.6 12 Sudoeste 19 Sudoeste 0 -- -- 82
2019-04-04 05:00:00 -5.1 12 Sudoeste 15 Sudoeste 0 -- -- 88
2019-04-04 04:00:00 -5 6 Sur 14 Oeste 0 -- -- 84
2019-04-04 03:00:00 -4.9 5 Oeste 10 Sudoeste 0 -- -- 82
2019-04-04 02:00:00 -4.2 7 Sudoeste 12 Sudoeste 0 -- -- 81
2019-04-04 01:00:00 -3.9 8 Sudoeste 10 Sur 0 -- -- 80
2019-04-04 00:00:00 -2.1 4 Noroeste 6 Norte 0 -- -- 74
2019-04-03 23:00:00 0.8 6 Norte 19 Noroeste 0 -- -- 68
2019-04-03 22:00:00 3.5 11 Noroeste 17 Noroeste 0 -- -- 53
2019-04-03 21:00:00 4.4 11 Noroeste 33 Noroeste 0 -- -- 53
2019-04-03 20:00:00 6.9 20 Noroeste 36 Noroeste 0 -- -- 51
2019-04-03 19:00:00 7.1 22 Noroeste 39 Noroeste 0 -- -- 50
2019-04-03 18:00:00 8.5 26 Noroeste 41 Noroeste 0 -- -- 39
2019-04-03 17:00:00 9.7 24 Noroeste 61 Noroeste 0 -- -- 42
2019-04-03 16:00:00 9.7 27 Oeste 40 Oeste 0 -- -- 39
2019-04-03 15:00:00 8.6 24 Oeste 42 Oeste 0 -- -- 45
2019-04-03 14:00:00 7.3 26 Oeste 37 Oeste 0 -- -- 54
2019-04-03 13:00:00 5.8 18 Oeste 28 Oeste 0 -- -- 67
2019-04-03 12:00:00 5.1 16 Oeste 29 Sudoeste 0 -- -- 74
2019-04-03 11:00:00 5.1 21 Sudoeste 28 Oeste 0 -- -- 73
2019-04-03 10:00:00 5.2 18 Sudoeste 29 Sudoeste 0 -- -- 75
2019-04-03 09:00:00 3.9 15 Sudoeste 22 Sudoeste 0 -- -- 76
2019-04-03 08:00:00 2.9 11 Sudoeste 16 Sudoeste 0 -- -- 77
2019-04-03 07:00:00 2.7 10 Sudoeste 15 Sudoeste 0 -- -- 76
2019-04-03 06:00:00 4.4 10 Sudoeste 16 Sudoeste 0 -- -- 69
2019-04-03 05:00:00 4.8 14 Sudoeste 20 Sudoeste 0 -- -- 67
2019-04-03 04:00:00 6.2 13 Sudoeste 25 Sudoeste 0 -- -- 63
2019-04-03 03:00:00 5.7 13 Sudoeste 26 Sudoeste 0 -- -- 64
2019-04-03 02:00:00 6.2 12 Sudoeste 23 Sudoeste 0 -- -- 59
2019-04-03 01:00:00 6.5 14 Sudoeste 23 Sudoeste 0 -- -- 56
2019-04-03 00:00:00 6.8 11 Sudoeste 22 Sudoeste 0 -- -- 58
2019-04-02 23:00:00 6.9 13 Sudoeste 18 Sudoeste 0 -- -- 62
2019-04-02 22:00:00 8.5 8 Sudoeste 11 Oeste 0 -- -- 54
2019-04-02 21:00:00 12.2 9 Oeste 23 Noroeste 0 -- -- 46
2019-04-02 20:00:00 14.1 17 Oeste 32 Oeste 0 -- -- 42
2019-04-02 19:00:00 16 23 Oeste 35 Sudoeste 0 -- -- 36
2019-04-02 18:00:00 16.2 21 Sudoeste 36 Sudoeste 0 -- -- 44
2019-04-02 17:00:00 14.3 15 Sudoeste 31 Oeste 0 -- -- 49
2019-04-02 16:00:00 14.8 20 Oeste 31 Sudoeste 0 -- -- 43
2019-04-02 15:00:00 16 19 Sudoeste 34 Sudoeste 0 -- -- 46
2019-04-02 14:00:00 14.4 22 Sudoeste 35 Sudoeste 0 -- -- 52
2019-04-02 13:00:00 13.7 18 Sudoeste 31 Sudoeste 0 -- -- 56
2019-04-02 12:00:00 12.9 19 Sudoeste 29 Sudoeste 0 -- -- 61
2019-04-02 11:00:00 10.8 19 Sudoeste 30 Sudoeste 0 -- -- 68
2019-04-02 10:00:00 7.3 9 Sudoeste 17 Sudoeste 0 -- -- 83
2019-04-02 09:00:00 3.7 5 Sudoeste 10 Sudoeste 0 -- -- 89
2019-04-02 08:00:00 3.3 3 Sur 13 Sudoeste 0 -- -- 84
2019-04-02 07:00:00 3.7 8 Sudoeste 10 Sudoeste 0 -- -- 85
2019-04-02 06:00:00 4.3 9 Sudoeste 11 Sudoeste 0 -- -- 87
2019-04-02 05:00:00 3.8 7 Sudoeste 9 Sur 0 -- -- 85
2019-04-02 04:00:00 3.2 0 Calma 5 Sur 0 -- -- 84
2019-04-02 03:00:00 3.3 0 Calma 8 Sudoeste 0 -- -- 79
2019-04-02 02:00:00 3.8 8 Sur 9 Sur 0 -- -- 81
2019-04-02 01:00:00 4.6 4 Sur 6 Sudoeste 0 -- -- 77
2019-04-02 00:00:00 6.6 5 Sur 12 Sudoeste 0 -- -- 74
2019-04-01 23:00:00 7.2 8 Sur 9 Sudoeste 0 -- -- 70
2019-04-01 22:00:00 9.1 2 Este 11 Noroeste 0 -- -- 59
2019-04-01 21:00:00 10.7 8 Norte 11 Norte 0 -- -- 53
2019-04-01 20:00:00 13 7 Norte 12 Norte 0 -- -- 51
2019-04-01 19:00:00 14.2 9 Norte 21 Oeste 0 -- -- 50
2019-04-01 18:00:00 15.4 13 Oeste 23 Sudoeste 0 -- -- 47
2019-04-01 17:00:00 13.9 10 Sudoeste 21 Oeste 0 -- -- 51
2019-04-01 16:00:00 14 12 Sudoeste 23 Sudoeste 0 -- -- 52
2019-04-01 15:00:00 13.3 14 Sudoeste 24 Sudoeste 0 -- -- 55
2019-04-01 14:00:00 13.3 13 Sudoeste 26 Sudoeste 0 -- -- 60
2019-04-01 13:00:00 12.3 14 Oeste 23 Oeste 0 -- -- 63
2019-04-01 12:00:00 10.4 10 Sudoeste 18 Sudoeste 0 -- -- 71
2019-04-01 11:00:00 9.5 10 Oeste 16 Oeste 0 -- -- 77
2019-04-01 10:00:00 7.2 4 Oeste 10 Oeste 0 -- -- 91
2019-04-01 09:00:00 5.6 2 Sudoeste 5 Oeste 0 -- -- 93
2019-04-01 08:00:00 4.8 3 Sudoeste 5 Oeste 0 -- -- 92
2019-04-01 07:00:00 5.2 5 Oeste 6 Oeste 0 -- -- 92
2019-04-01 06:00:00 5.8 4 Norte 6 Norte 0 -- -- 90
2019-04-01 05:00:00 5.9 3 Nordeste 14 Nordeste 0 -- -- 89
2019-04-01 04:00:00 5.5 6 Este 17 Este 0 -- -- 91
2019-04-01 03:00:00 5.4 10 Nordeste 19 Sudeste 0 -- -- 91
2019-04-01 02:00:00 4.9 9 Este 25 Nordeste 0 -- -- 91
2019-04-01 01:00:00 5.4 16 Nordeste 27 Este 0 -- -- 89
2019-04-01 00:00:00 6 16 Este 28 Este 0 -- -- 85
2019-03-31 23:00:00 6.1 14 Este 27 Este 0 -- -- 87
2019-03-31 22:00:00 6 14 Este 28 Este 0 -- -- 84
2019-03-31 21:00:00 7.2 13 Este 27 Este 0 -- -- 83
2019-03-31 20:00:00 7.9 16 Este 30 Este 0 -- -- 82
2019-03-31 19:00:00 8.9 15 Este 28 Este 0.2 -- -- 82
2019-03-31 18:00:00 9.9 17 Este 35 Este 0 -- -- 78
2019-03-31 17:00:00 11.2 21 Este 34 Este 0 -- -- 68
2019-03-31 16:00:00 11.9 30 Este 40 Este 0 -- -- 60
2019-03-31 15:00:00 13.4 25 Este 39 Este 0 -- -- 52
2019-03-31 14:00:00 13.2 19 Este 37 Nordeste 0 -- -- 50
2019-03-31 13:00:00 13.9 19 Este 35 Sudeste 0 -- -- 48
2019-03-31 12:00:00 13.9 19 Este 30 Este 0 -- -- 49
2019-03-31 11:00:00 12.4 14 Este 26 Este 0 -- -- 58
2019-03-31 10:00:00 6.8 5 Nordeste 9 Nordeste 0 -- -- 76
2019-03-31 09:00:00 0.3 2 Sudoeste 11 Sudoeste 0 -- -- 84
2019-03-31 08:00:00 -2.1 6 Sudoeste 9 Sudoeste 0 -- -- 82
2019-03-31 07:00:00 -1.6 4 Sudoeste 9 Sur 0 -- -- 79
2019-03-31 06:00:00 -1 4 Sur 10 Sur 0 -- -- 76
2019-03-31 05:00:00 -0.4 5 Sudoeste 12 Sur 0 -- -- 72
2019-03-31 03:00:00 4.4 5 Norte 10 Este 0 -- -- 60
2019-03-31 01:00:00 5.5 6 Sudeste 25 Este 0 -- -- 55
2019-03-31 00:00:00 7.6 13 Este 26 Sudeste 0 -- -- 49
2019-03-30 23:00:00 8.6 13 Este 26 Este 0 -- -- 47
2019-03-30 22:00:00 8.7 9 Este 17 Nordeste 0 -- -- 43
2019-03-30 21:00:00 10.2 8 Sur 16 Sur 0 -- -- 39
2019-03-30 20:00:00 11.7 9 Sur 15 Sudeste 0 -- -- 41
2019-03-30 19:00:00 13.9 4 Sudeste 6 Sur 0 -- -- 38
2019-03-30 18:00:00 14.6 3 Sur 10 Este 0 -- -- 35
2019-03-30 17:00:00 15.1 7 Este 19 Este 0 -- -- 32
2019-03-30 16:00:00 16.4 8 Sur 17 Sur 0 -- -- 34
2019-03-30 15:00:00 16.1 9 Norte 23 Nordeste 0 -- -- 33
2019-03-30 14:00:00 15.3 6 Nordeste 18 Nordeste 0 -- -- 33
2019-03-30 13:00:00 14.7 8 Norte 19 Nordeste 0 -- -- 38
2019-03-30 12:00:00 13 6 Nordeste 18 Norte 0 -- -- 44
2019-03-30 11:00:00 11.6 8 Nordeste 13 Nordeste 0 -- -- 48
2019-03-30 10:00:00 8.3 5 Norte 9 Norte 0 -- -- 61
2019-03-30 09:00:00 5.7 4 Norte 6 Norte 0 -- -- 69
2019-03-30 08:00:00 0.4 4 Sudoeste 9 Sur 0 -- -- 85
2019-03-30 07:00:00 -2.3 8 Sur 11 Sur 0 -- -- 84
2019-03-30 06:00:00 -1.6 6 Sudoeste 11 Sudoeste 0 -- -- 83
2019-03-30 05:00:00 -0.4 5 Sur 8 Sur 0 -- -- 79
2019-03-30 04:00:00 1.7 4 Sur 9 Sur 0 -- -- 71
2019-03-30 03:00:00 4.8 2 Sur 21 Sudoeste 0 -- -- 65
2019-03-30 02:00:00 6.9 12 Sudoeste 17 Sur 0 -- -- 59
2019-03-30 01:00:00 7.1 14 Sudeste 30 Sur 0 -- -- 51
2019-03-30 00:00:00 5.1 5 Norte 11 Norte 0 -- -- 59
2019-03-29 23:00:00 5.2 4 Sudoeste 10 Sur 0 -- -- 56
2019-03-29 22:00:00 5.6 7 Sur 12 Sudoeste 0 -- -- 49
2019-03-29 21:00:00 8.7 6 Sur 14 Sur 0 -- -- 38
2019-03-29 20:00:00 10.4 6 Sur 21 Sur 0 -- -- 36
2019-03-29 19:00:00 13.6 16 Sur 28 Sudoeste 0 -- -- 30
2019-03-29 18:00:00 15 15 Sur 34 Sur 0 -- -- 28
2019-03-29 17:00:00 16.4 21 Sudoeste 34 Sudoeste 0 -- -- 27
2019-03-29 16:00:00 16.9 21 Sudoeste 34 Oeste 0 -- -- 29
2019-03-29 15:00:00 16.6 19 Sudoeste 37 Oeste 0 -- -- 30
2019-03-29 14:00:00 15.9 14 Oeste 26 Oeste 0 -- -- 30
2019-03-29 13:00:00 15.3 7 Nordeste 23 Noroeste 0 -- -- 34
2019-03-29 12:00:00 13.9 11 Noroeste 21 Noroeste 0 -- -- 38
2019-03-29 11:00:00 12.2 5 Nordeste 10 Nordeste 0 -- -- 42
2019-03-29 10:00:00 8.9 5 Nordeste 9 Nordeste 0 -- -- 49
2019-03-29 09:00:00 6.1 3 Nordeste 6 Norte 0 -- -- 56
2019-03-29 08:00:00 -0.1 4 Sudoeste 9 Sur 0 -- -- 74
2019-03-29 07:00:00 -2.3 7 Sudoeste 9 Sur 0 -- -- 74
2019-03-29 06:00:00 -1.1 5 Sur 9 Sur 0 -- -- 70
2019-03-29 05:00:00 -2.2 3 Sudoeste 5 Sudoeste 0 -- -- 69
2019-03-29 04:00:00 -0.1 2 Este 10 Sur 0 -- -- 68
2019-03-29 03:00:00 0.1 6 Sudoeste 13 Sudoeste 0 -- -- 65
2019-03-29 02:00:00 -0.7 9 Sudoeste 14 Sur 0 -- -- 68
2019-03-29 01:00:00 -0.1 5 Sudoeste 10 Sur 0 -- -- 59
2019-03-29 00:00:00 1.6 6 Sur 10 Sur 0 -- -- 57
2019-03-28 23:00:00 5.1 2 Nordeste 12 Este 0 -- -- 46
2019-03-28 22:00:00 7 7 Sudeste 11 Sudeste 0 -- -- 42
2019-03-28 21:00:00 10 0 Calma 19 Este 0 -- -- 36
2019-03-28 20:00:00 12.5 5 Sur 18 Nordeste 0 -- -- 31
2019-03-28 19:00:00 15.1 14 Nordeste 24 Nordeste 0 -- -- 29
2019-03-28 18:00:00 16.6 14 Nordeste 23 Nordeste 0 -- -- 25
2019-03-28 17:00:00 17 8 Norte 20 Nordeste 0 -- -- 26
2019-03-28 16:00:00 17.3 10 Noroeste 21 Nordeste 0 -- -- 29
2019-03-28 15:00:00 16.6 8 Nordeste 23 Norte 0 -- -- 27
2019-03-28 14:00:00 15.8 9 Norte 21 Nordeste 0 -- -- 29
2019-03-28 13:00:00 15 8 Nordeste 17 Nordeste 0 -- -- 32
2019-03-28 12:00:00 13.5 7 Norte 15 Nordeste 0 -- -- 32
2019-03-28 11:00:00 12.2 5 Nordeste 13 Nordeste 0 -- -- 35
2019-03-28 10:00:00 9.6 4 Nordeste 8 Nordeste 0 -- -- 47
2019-03-28 09:00:00 5 2 Nordeste 5 Sudoeste 0 -- -- 51
2019-03-28 08:00:00 -1.2 3 Sudoeste 9 Sur 0 -- -- 66
2019-03-28 07:00:00 -3.1 5 Sur 9 Sur 0 -- -- 66
2019-03-28 06:00:00 0.5 3 Sudoeste 6 Sur 0 -- -- 53
2019-03-28 05:00:00 2.6 2 Norte 19 Este 0 -- -- 50
2019-03-28 04:00:00 3.7 13 Este 21 Este 0 -- -- 46
2019-03-28 03:00:00 5.5 15 Este 27 Sudeste 0 -- -- 41
2019-03-28 02:00:00 4.9 15 Este 21 Este 0 -- -- 38
2019-03-28 01:00:00 6 13 Este 26 Sudeste 0 -- -- 35
2019-03-28 00:00:00 4.7 4 Nordeste 19 Este 0 -- -- 41
2019-03-27 23:00:00 4.4 7 Este 16 Este 0 -- -- 44
2019-03-27 22:00:00 5.4 7 Este 13 Este 0 -- -- 41
2019-03-27 21:00:00 7.9 8 Este 17 Este 0 -- -- 34
2019-03-27 20:00:00 11.1 12 Este 27 Este 0 -- -- 28
2019-03-27 19:00:00 14.4 18 Este 30 Este 0 -- -- 23
2019-03-27 18:00:00 16.7 15 Este 23 Norte 0 -- -- 20
2019-03-27 17:00:00 17.2 12 Norte 23 Nordeste 0 -- -- 20
2019-03-27 16:00:00 17.1 10 Nordeste 26 Nordeste 0 -- -- 20
2019-03-27 15:00:00 16.8 12 Nordeste 27 Nordeste 0 -- -- 18
2019-03-27 14:00:00 15.9 19 Nordeste 32 Nordeste 0 -- -- 20
2019-03-27 13:00:00 14.8 21 Nordeste 32 Nordeste 0 -- -- 23
2019-03-27 12:00:00 14.1 19 Nordeste 28 Nordeste 0 -- -- 29
2019-03-27 11:00:00 12.6 18 Nordeste 27 Este 0 -- -- 31
2019-03-27 10:00:00 10.9 10 Este 21 Este 0 -- -- 33
2019-03-27 09:00:00 5.9 5 Nordeste 7 Nordeste 0 -- -- 42
2019-03-27 08:00:00 -1.6 3 Sur 10 Sudoeste 0 -- -- 60
2019-03-27 07:00:00 -2.5 8 Sudoeste 10 Sur 0 -- -- 58
2019-03-27 06:00:00 2.1 5 Nordeste 15 Este 0 -- -- 47
2019-03-27 05:00:00 2.7 8 Este 20 Este 0 -- -- 42
2019-03-27 04:00:00 3.3 12 Este 24 Este 0 -- -- 38
2019-03-27 03:00:00 2.1 9 Este 17 Este 0 -- -- 41
2019-03-27 02:00:00 5.8 14 Este 27 Este 0 -- -- 31
2019-03-27 01:00:00 4.1 8 Este 22 Este 0 -- -- 34
2019-03-27 00:00:00 4.8 12 Este 19 Este 0 -- -- 32
2019-03-26 23:00:00 5 9 Este 23 Este 0 -- -- 30
2019-03-26 22:00:00 7.5 15 Este 26 Este 0 -- -- 26
2019-03-26 21:00:00 7.9 14 Este 22 Este 0 -- -- 27
2019-03-26 20:00:00 10.3 10 Este 32 Nordeste 0 -- -- 22
2019-03-26 19:00:00 13.8 20 Nordeste 36 Este 0 -- -- 20
2019-03-26 18:00:00 15.3 23 Este 41 Este 0 -- -- 20
2019-03-26 17:00:00 16.2 23 Este 48 Este 0 -- -- 19
2019-03-26 16:00:00 16.5 21 Este 38 Nordeste 0 -- -- 21
2019-03-26 15:00:00 15.9 23 Este 39 Este 0 -- -- 26
2019-03-26 14:00:00 15.6 25 Este 39 Este 0 -- -- 29
2019-03-26 13:00:00 14.7 24 Este 42 Este 0 -- -- 31
2019-03-26 12:00:00 13.4 23 Este 37 Este 0 -- -- 35
2019-03-26 11:00:00 11.2 22 Este 38 Este 0 -- -- 37
2019-03-26 10:00:00 10.5 19 Este 42 Este 0 -- -- 32
2019-03-26 09:00:00 7.9 24 Este 38 Este 0 -- -- 39
2019-03-26 08:00:00 5.3 15 Este 26 Este 0 -- -- 42
2019-03-26 07:00:00 3.9 13 Este 26 Este 0 -- -- 47
2019-03-26 06:00:00 3.8 13 Este 24 Este 0 -- -- 54
2019-03-26 05:00:00 1 9 Este 17 Nordeste 0 -- -- 70
2019-03-26 04:00:00 1 11 Nordeste 19 Nordeste 0 -- -- 74
2019-03-26 03:00:00 1.5 14 Nordeste 19 Nordeste 0 -- -- 75
2019-03-26 02:00:00 1.2 11 Nordeste 14 Este 0 -- -- 71
2019-03-26 01:00:00 1.5 0 Calma 9 Norte 0 -- -- 67
2019-03-26 00:00:00 1.3 3 Nordeste 9 Nordeste 0 -- -- 66
2019-03-25 23:00:00 1.9 0 Calma 7 Norte 0 -- -- 63
2019-03-25 22:00:00 3.7 0 Calma 8 Norte 0 -- -- 53
2019-03-25 21:00:00 6.1 6 Norte 15 Norte 0 -- -- 51
2019-03-25 20:00:00 9.8 8 Nordeste 23 Nordeste 0 -- -- 38
2019-03-25 19:00:00 13.6 24 Norte 33 Norte 0 -- -- 25
2019-03-25 18:00:00 15.9 15 Noroeste 23 Norte 0 -- -- 33
2019-03-25 17:00:00 16.7 10 Noroeste 21 Norte 0 -- -- 36
2019-03-25 16:00:00 16.5 9 Norte 22 Norte 0 -- -- 33
2019-03-25 15:00:00 16 11 Norte 23 Norte 0 -- -- 31
2019-03-25 14:00:00 15.5 9 Nordeste 23 Norte 0 -- -- 33
2019-03-25 13:00:00 14.6 12 Norte 23 Norte 0 -- -- 39
2019-03-25 12:00:00 14.1 10 Nordeste 23 Norte 0 -- -- 46
2019-03-25 11:00:00 13 10 Nordeste 22 Nordeste 0 -- -- 45
2019-03-25 10:00:00 12.3 13 Nordeste 19 Este 0 -- -- 45
2019-03-25 09:00:00 7.5 0 Calma 4 Norte 0 -- -- 62
2019-03-25 08:00:00 0.5 0 Calma 9 Sur 0 -- -- 75
2019-03-25 07:00:00 -1.3 3 Sur 5 Sur 0 -- -- 73
2019-03-25 06:00:00 0.3 2 Oeste 9 Sur 0 -- -- 68
2019-03-25 05:00:00 2.6 0 Calma 14 Norte 0 -- -- 60
2019-03-25 04:00:00 6 8 Sudeste 18 Sudeste 0 -- -- 52
2019-03-25 03:00:00 6.2 6 Este 17 Este 0 -- -- 52
2019-03-25 02:00:00 7.7 9 Sudeste 17 Sudeste 0 -- -- 47
2019-03-25 01:00:00 9.3 9 Sudeste 28 Este 0 -- -- 45
2019-03-25 00:00:00 10.1 16 Este 30 Este 0 -- -- 46
2019-03-24 23:00:00 10 18 Este 30 Este 0 -- -- 47
2019-03-24 22:00:00 7.7 8 Este 17 Norte 0 -- -- 46
2019-03-24 21:00:00 8.6 5 Sur 9 Sudoeste 0 -- -- 38
2019-03-24 20:00:00 11.6 5 Sudeste 11 Sudeste 0 -- -- 33
2019-03-24 19:00:00 15.8 8 Este 28 Nordeste 0 -- -- 28
2019-03-24 18:00:00 17.5 17 Nordeste 27 Nordeste 0 -- -- 25
2019-03-24 17:00:00 18.4 15 Nordeste 30 Nordeste 0 -- -- 23
2019-03-24 16:00:00 18.3 15 Nordeste 34 Nordeste 0 -- -- 24
2019-03-24 15:00:00 18.4 16 Este 27 Este 0 -- -- 23
2019-03-24 14:00:00 18.2 10 Sudeste 27 Este 0 -- -- 27
2019-03-24 13:00:00 17.5 16 Sudeste 30 Este 0 -- -- 23
2019-03-24 12:00:00 16.5 17 Este 27 Este 0 -- -- 25
2019-03-24 11:00:00 14.9 16 Nordeste 26 Nordeste 0 -- -- 34
2019-03-24 10:00:00 9.1 5 Nordeste 8 Norte 0 -- -- 65
2019-03-24 09:00:00 5.1 0 Calma 4 Nordeste 0 -- -- 73
2019-03-24 08:00:00 -0.6 4 Sudoeste 8 Sudoeste 0 -- -- 89
2019-03-24 07:00:00 -1.5 3 Sur 9 Sur 0 -- -- 89
2019-03-24 06:00:00 -0.9 3 Sur 9 Sur 0 -- -- 84
2019-03-24 05:00:00 -0.5 9 Sur 12 Sur 0 -- -- 85
2019-03-24 04:00:00 0 4 Sudoeste 8 Sur 0 -- -- 80
2019-03-24 03:00:00 1.2 5 Sur 11 Sudoeste 0 -- -- 80
2019-03-24 02:00:00 1.7 8 Sur 10 Sur 0 -- -- 74
2019-03-24 01:00:00 2.9 5 Sur 10 Sur 0 -- -- 70
2019-03-24 00:00:00 6.5 3 Sur 12 Este 0 -- -- 58
2019-03-23 23:00:00 8.1 9 Este 20 Sudeste 0 -- -- 56
2019-03-23 22:00:00 11.6 15 Sudeste 21 Sudeste 0 -- -- 45
2019-03-23 21:00:00 11 13 Sudeste 18 Sudeste 0 -- -- 45
2019-03-23 20:00:00 11.3 10 Este 20 Este 0 -- -- 44
2019-03-23 19:00:00 15.1 10 Este 23 Este 0 -- -- 36
2019-03-23 18:00:00 16.7 16 Este 29 Nordeste 0 -- -- 33
2019-03-23 17:00:00 17.2 18 Este 30 Este 0 -- -- 28
2019-03-23 16:00:00 17.4 19 Este 31 Este 0 -- -- 32
2019-03-23 15:00:00 17.5 18 Este 32 Este 0 -- -- 32
2019-03-23 14:00:00 17.1 17 Este 32 Este 0 -- -- 36
2019-03-23 13:00:00 16.3 20 Este 32 Este 0 -- -- 35
2019-03-23 12:00:00 15.2 19 Nordeste 31 Nordeste 0 -- -- 42
2019-03-23 11:00:00 13.7 13 Nordeste 19 Nordeste 0 -- -- 48
2019-03-23 10:00:00 8.5 5 Norte 8 Norte 0 -- -- 65
2019-03-23 09:00:00 4.3 3 Nordeste 5 Norte 0 -- -- 72
2019-03-23 08:00:00 -1 3 Sudoeste 6 Sur 0 -- -- 89
2019-03-23 07:00:00 -1.9 2 Sur 5 Sur 0 -- -- 85
2019-03-23 06:00:00 -2 3 Sudoeste 7 Sudoeste 0 -- -- 84
2019-03-23 05:00:00 -0.6 5 Sudoeste 7 Sur 0 -- -- 81
2019-03-23 04:00:00 0.7 2 Sudeste 5 Norte 0 -- -- 75
2019-03-23 03:00:00 1.9 3 Sur 9 Sudoeste 0 -- -- 73
2019-03-23 02:00:00 3 4 Sudoeste 8 Sudoeste 0 -- -- 68
2019-03-23 01:00:00 4.5 7 Oeste 14 Oeste 0 -- -- 63
2019-03-23 00:00:00 8.6 12 Sudeste 30 Sudeste 0 -- -- 51
2019-03-22 23:00:00 10.3 19 Sudeste 29 Sudeste 0 -- -- 45
2019-03-22 22:00:00 10.2 17 Sudeste 23 Sudeste 0 -- -- 43
2019-03-22 21:00:00 10.2 14 Sudeste 22 Este 0 -- -- 43
2019-03-22 20:00:00 10 9 Este 17 Este 0 -- -- 46
2019-03-22 19:00:00 13.5 13 Este 26 Este 0 -- -- 37
2019-03-22 18:00:00 14.9 14 Este 31 Este 0 -- -- 32
2019-03-22 17:00:00 15.6 16 Este 31 Este 0 -- -- 31
2019-03-22 16:00:00 15.5 15 Este 28 Nordeste 0 -- -- 28
2019-03-22 15:00:00 15.4 14 Nordeste 33 Nordeste 0 -- -- 29
2019-03-22 14:00:00 14.5 17 Nordeste 30 Nordeste 0 -- -- 34
2019-03-22 13:00:00 13.8 15 Nordeste 27 Nordeste 0 -- -- 34
2019-03-22 12:00:00 12.6 13 Nordeste 21 Nordeste 0 -- -- 37
2019-03-22 11:00:00 9.9 8 Nordeste 11 Norte 0 -- -- 47
2019-03-22 10:00:00 6.3 6 Norte 9 Norte 0 -- -- 56
2019-03-22 09:00:00 2.6 2 Nordeste 5 Nordeste 0 -- -- 65
2019-03-22 08:00:00 -3.4 3 Sudoeste 6 Sur 0 -- -- 83
2019-03-22 07:00:00 -5 6 Sur 9 Sudoeste 0 -- -- 82
2019-03-22 06:00:00 -4.7 9 Sudoeste 12 Sur 0 -- -- 83
2019-03-22 05:00:00 -4.3 5 Sur 9 Sur 0 -- -- 78
2019-03-22 04:00:00 -3.3 8 Sur 10 Sur 0 -- -- 76
2019-03-22 03:00:00 -3.1 7 Sudoeste 10 Sudoeste 0 -- -- 75
2019-03-22 02:00:00 -2.5 6 Sudoeste 9 Sudoeste 0 -- -- 70
2019-03-22 01:00:00 -0.6 4 Sur 9 Sur 0 -- -- 65
2019-03-22 00:00:00 0.7 3 Sudoeste 10 Sudoeste 0 -- -- 58
2019-03-21 23:00:00 3.8 4 Sudeste 19 Sudeste 0 -- -- 47
2019-03-21 22:00:00 6.9 13 Sudeste 24 Este 0 -- -- 37
2019-03-21 21:00:00 7.1 17 Sudeste 23 Sudeste 0 -- -- 41
2019-03-21 20:00:00 8 12 Nordeste 16 Nordeste 0 -- -- 39
2019-03-21 19:00:00 10.9 10 Nordeste 15 Nordeste 0 -- -- 35
2019-03-21 18:00:00 12.6 7 Nordeste 16 Nordeste 0 -- -- 31
2019-03-21 17:00:00 13.3 7 Norte 16 Norte 0 -- -- 30
2019-03-21 16:00:00 12.9 7 Nordeste 17 Nordeste 0 -- -- 31
2019-03-21 15:00:00 12.4 8 Nordeste 15 Nordeste 0 -- -- 32
2019-03-21 14:00:00 11.6 6 Norte 17 Norte 0 -- -- 37
2019-03-21 13:00:00 10.6 7 Norte 18 Noroeste 0 -- -- 37
2019-03-21 12:00:00 9.6 5 Norte 12 Noroeste 0 -- -- 41
2019-03-21 11:00:00 7.6 4 Nordeste 9 Norte 0 -- -- 49
2019-03-21 10:00:00 5 6 Norte 10 Norte 0 -- -- 60
2019-03-21 09:00:00 1.9 5 Noroeste 8 Sudoeste 0 -- -- 65
2019-03-21 08:00:00 -4.1 6 Sudoeste 11 Sudoeste 0 -- -- 84
2019-03-21 07:00:00 -5.9 8 Sur 10 Sudoeste 0 -- -- 83
2019-03-21 06:00:00 -5.4 4 Sudoeste 9 Sudoeste 0 -- -- 81
2019-03-21 05:00:00 -3.6 5 Sur 9 Sudoeste 0 -- -- 76
2019-03-21 04:00:00 0.2 3 Sudoeste 21 Este 0 -- -- 65
2019-03-21 03:00:00 1.5 17 Este 23 Este 0 -- -- 62
2019-03-21 02:00:00 1.3 12 Este 25 Este 0 -- -- 63
2019-03-21 01:00:00 1.8 3 Sudeste 22 Este 0 -- -- 61
2019-03-21 00:00:00 2.7 11 Este 21 Este 0 -- -- 58
2019-03-20 23:00:00 3.2 9 Este 17 Este 0 -- -- 57
2019-03-20 22:00:00 3 4 Este 15 Este 0 -- -- 55
2019-03-20 21:00:00 4.1 6 Este 13 Este 0 -- -- 52
2019-03-20 20:00:00 6.7 9 Sudeste 15 Sudeste 0 -- -- 44
2019-03-20 19:00:00 10.1 9 Este 18 Nordeste 0 -- -- 38
2019-03-20 18:00:00 11.5 12 Este 21 Nordeste 0 -- -- 36
2019-03-20 17:00:00 12 11 Nordeste 24 Este 0 -- -- 33
2019-03-20 16:00:00 11.7 13 Nordeste 24 Este 0 -- -- 33
2019-03-20 15:00:00 11.3 12 Nordeste 31 Norte 0 -- -- 38
2019-03-20 14:00:00 9.8 8 Nordeste 26 Nordeste 0 -- -- 42
2019-03-20 13:00:00 8.6 13 Este 29 Este 0 -- -- 44
2019-03-20 12:00:00 7.6 12 Nordeste 28 Norte 0 -- -- 50
2019-03-20 11:00:00 6.5 12 Este 24 Este 0 -- -- 56
2019-03-20 10:00:00 4.8 8 Nordeste 15 Nordeste 0 -- -- 68
2019-03-20 09:00:00 2.8 5 Norte 9 Norte 0 -- -- 79
2019-03-20 08:00:00 -2.8 2 Sudoeste 10 Sur 0 -- -- 96
2019-03-20 07:00:00 -4.8 0 Calma 9 Sur 0 -- -- 91
2019-03-20 06:00:00 -5 4 Sudoeste 8 Sudoeste 0 -- -- 93
2019-03-20 05:00:00 -4.8 7 Sudoeste 12 Sur 0 -- -- 91
2019-03-20 04:00:00 -3.7 7 Sur 12 Sur 0 -- -- 92
2019-03-20 03:00:00 -3.4 5 Sudoeste 10 Sudoeste 0 -- -- 90
2019-03-20 02:00:00 -2.1 3 Sur 8 Norte 0 -- -- 88
2019-03-20 01:00:00 -0.2 3 Norte 6 Nordeste 0 -- -- 87
2019-03-20 00:00:00 -0.2 2 Este 6 Sudoeste 0 -- -- 87
2019-03-19 23:00:00 0.3 3 Nordeste 5 Nordeste 0 -- -- 87
2019-03-19 22:00:00 2 5 Nordeste 11 Norte 0 -- -- 78
2019-03-19 21:00:00 3.4 10 Norte 22 Norte 0 -- -- 75
2019-03-19 20:00:00 5.1 14 Norte 32 Norte 0 -- -- 67
2019-03-19 19:00:00 7.5 21 Norte 44 Norte 0 -- -- 56
2019-03-19 18:00:00 9.3 27 Norte 42 Norte 0 -- -- 51
2019-03-19 17:00:00 10.1 27 Norte 45 Norte 0 -- -- 53
2019-03-19 16:00:00 10.5 26 Norte 39 Norte 0 -- -- 56
2019-03-19 15:00:00 10.4 28 Norte 44 Norte 0 -- -- 56
2019-03-19 14:00:00 8.9 22 Norte 42 Norte 0 -- -- 61
2019-03-19 13:00:00 7.9 27 Norte 35 Norte 0 -- -- 64
2019-03-19 12:00:00 7 20 Norte 36 Norte 0 -- -- 68
2019-03-19 11:00:00 6.8 21 Norte 33 Norte 0 -- -- 70
2019-03-19 10:00:00 5.8 15 Norte 26 Norte 0 -- -- 73
2019-03-19 09:00:00 4.1 6 Norte 16 Norte 0 -- -- 80
2019-03-19 08:00:00 2 10 Norte 13 Norte 0 -- -- 86
2019-03-19 07:00:00 2.4 3 Noroeste 10 Norte 0 -- -- 80
2019-03-19 06:00:00 3.2 4 Norte 19 Norte 0 -- -- 76
2019-03-19 05:00:00 3.1 12 Norte 17 Norte 0 -- -- 76
2019-03-19 04:00:00 1.9 4 Sudoeste 7 Sur 0 -- -- 79
2019-03-19 03:00:00 1 5 Sudoeste 12 Sudoeste 0 -- -- 82
2019-03-19 02:00:00 0 8 Sudoeste 10 Sudoeste 0 -- -- 83
2019-03-19 01:00:00 -0.4 6 Sur 9 Sur 0 -- -- 83
2019-03-19 00:00:00 -0.5 6 Sudoeste 8 Sur 0 -- -- 80